createdAt,value
2023-01-15T00:00:28.349Z,76.60
2023-01-15T00:05:33.292Z,76.70
2023-01-15T00:10:37.136Z,76.90
2023-01-15T00:15:40.845Z,77.10
2023-01-15T00:20:45.897Z,77.20
2023-01-15T00:26:07.373Z,77.20
2023-01-15T00:31:11.008Z,76.90
2023-01-15T00:36:15.947Z,77.00
2023-01-15T00:41:19.954Z,76.40
2023-01-15T00:46:25.493Z,77.00
2023-01-15T00:51:31.266Z,76.20
2023-01-15T00:56:34.847Z,75.90
2023-01-15T01:01:39.095Z,76.00
2023-01-15T01:06:44.125Z,76.10
2023-01-15T01:11:50.234Z,75.90
2023-01-15T01:16:53.792Z,76.00
2023-01-15T01:21:58.737Z,76.30
2023-01-15T01:27:02.236Z,76.40
2023-01-15T01:32:06.924Z,76.30
2023-01-15T01:37:12.814Z,76.60
2023-01-15T01:42:18.837Z,76.60
2023-01-15T01:47:27.004Z,76.70
2023-01-15T01:52:40.062Z,76.60
2023-01-15T01:57:44.275Z,76.30
2023-01-15T02:02:50.225Z,76.30
2023-01-15T02:07:55.631Z,76.30
2023-01-15T02:13:08.322Z,76.30
2023-01-15T02:18:20.282Z,76.30
2023-01-15T02:24:01.884Z,76.30
2023-01-15T02:29:14.701Z,77.10
2023-01-15T02:34:25.544Z,76.50
2023-01-15T02:39:31.927Z,76.30
2023-01-15T02:44:43.319Z,77.10
2023-01-15T02:49:51.065Z,76.30
2023-01-15T02:55:02.013Z,76.40
2023-01-15T03:00:13.433Z,76.30
2023-01-15T03:05:24.813Z,76.10
2023-01-15T03:10:39.641Z,76.20
2023-01-15T03:16:12.106Z,75.90
2023-01-15T03:21:24.427Z,75.90
2023-01-15T03:26:30.302Z,75.90
2023-01-15T03:31:37.739Z,75.80
2023-01-15T03:36:41.725Z,75.70
2023-01-15T03:42:04.467Z,75.70
2023-01-15T03:47:28.736Z,75.60
2023-01-15T03:52:45.334Z,75.80
2023-01-15T03:57:55.222Z,75.90
2023-01-15T04:03:04.804Z,76.20
2023-01-15T04:08:11.021Z,76.40
2023-01-15T04:13:14.793Z,76.60
2023-01-15T04:18:22.745Z,76.60
2023-01-15T04:23:26.391Z,76.40
2023-01-15T04:28:29.971Z,76.00
2023-01-15T04:33:36.850Z,75.90
2023-01-15T04:38:40.321Z,75.60
2023-01-15T04:44:01.491Z,75.50
2023-01-15T04:49:08.980Z,75.30
2023-01-15T04:54:16.559Z,75.10
2023-01-15T04:59:23.555Z,74.90
2023-01-15T05:04:28.593Z,75.00
2023-01-15T05:09:32.375Z,75.10
2023-01-15T05:14:35.969Z,75.10
2023-01-15T05:19:41.409Z,75.00
2023-01-15T05:24:45.015Z,75.20
2023-01-15T05:29:48.737Z,75.70
2023-01-15T05:34:53.646Z,76.00
2023-01-15T05:39:57.242Z,76.30
2023-01-15T05:45:00.927Z,76.30
2023-01-15T05:50:07.973Z,76.30
2023-01-15T05:55:11.658Z,76.10
2023-01-15T06:00:17.247Z,76.60
2023-01-15T06:05:22.230Z,76.30
2023-01-15T06:10:25.725Z,76.20
2023-01-15T06:15:29.245Z,76.00
2023-01-15T06:20:36.712Z,76.00
2023-01-15T06:25:40.371Z,75.70
2023-01-15T06:30:43.900Z,75.80
2023-01-15T06:35:48.925Z,75.30
2023-01-15T06:40:52.421Z,75.00
2023-01-15T06:46:21.984Z,74.90
2023-01-15T06:51:27.079Z,74.80
2023-01-15T06:56:30.644Z,74.90
2023-01-15T07:01:34.203Z,74.70
2023-01-15T07:06:39.463Z,74.60
2023-01-15T07:11:50.251Z,74.50
2023-01-15T07:16:54.228Z,74.60
2023-01-15T07:21:59.467Z,74.40
2023-01-15T07:27:03.545Z,74.40
2023-01-15T07:32:07.798Z,74.30
2023-01-15T07:37:12.983Z,74.30
2023-01-15T07:42:34.110Z,74.30
2023-01-15T07:47:55.177Z,74.30
2023-01-15T07:53:00.183Z,74.10
2023-01-15T07:58:05.038Z,74.20
2023-01-15T08:03:09.304Z,74.20
2023-01-15T08:08:17.990Z,74.20
2023-01-15T08:13:39.069Z,73.90
2023-01-15T08:18:42.709Z,73.90
2023-01-15T08:23:47.677Z,74.00
2023-01-15T08:28:51.225Z,74.00
2023-01-15T08:33:54.771Z,73.80
2023-01-15T08:38:59.702Z,73.80
2023-01-15T08:44:03.493Z,73.90
2023-01-15T08:49:07.060Z,73.80
2023-01-15T08:54:12.187Z,73.80
2023-01-15T08:59:15.947Z,73.70
2023-01-15T09:04:22.592Z,74.10
2023-01-15T09:09:27.485Z,69.80
2023-01-15T09:14:56.917Z,67.10
2023-01-15T09:19:55.185Z,65.30
2023-01-15T09:25:00.649Z,63.40
2023-01-15T09:30:04.885Z,61.50
2023-01-15T09:35:10.173Z,61.20
2023-01-15T09:40:49.201Z,62.30
2023-01-15T09:46:00.339Z,62.80
2023-01-15T09:51:20.118Z,63.50
2023-01-15T09:56:29.732Z,64.10
2023-01-15T10:01:34.983Z,65.00
2023-01-15T10:06:46.098Z,65.40
2023-01-15T10:12:18.079Z,65.80
2023-01-15T10:17:28.523Z,66.10
2023-01-15T10:22:59.499Z,66.50
2023-01-15T10:28:20.841Z,66.90
2023-01-15T10:33:56.268Z,67.10
2023-01-15T10:39:07.478Z,67.40
2023-01-15T10:44:19.508Z,67.60
2023-01-15T10:49:23.071Z,67.70
2023-01-15T10:54:33.293Z,67.80
2023-01-15T10:59:47.619Z,68.00
2023-01-15T11:04:51.273Z,68.10
2023-01-15T11:09:55.143Z,68.10
2023-01-15T11:15:17.477Z,69.60
2023-01-15T11:20:31.992Z,69.40
2023-01-15T11:25:35.697Z,69.30
2023-01-15T11:30:41.887Z,69.10
2023-01-15T11:35:57.248Z,69.10
2023-01-15T11:41:05.402Z,69.20
2023-01-15T11:46:48.994Z,69.10
2023-01-15T11:51:52.603Z,69.00
2023-01-15T11:56:57.598Z,68.90
2023-01-15T12:02:07.546Z,69.00
2023-01-15T12:07:16.003Z,69.20
2023-01-15T12:12:31.082Z,69.10
2023-01-15T12:18:23.392Z,69.30
2023-01-15T12:23:54.373Z,69.60
2023-01-15T12:29:10.585Z,69.70
2023-01-15T12:34:24.268Z,69.50
2023-01-15T12:39:33.738Z,69.10
2023-01-15T12:45:12.485Z,69.10
2023-01-15T12:50:34.263Z,69.10
2023-01-15T12:55:43.248Z,69.00
2023-01-15T13:00:47.773Z,69.00
2023-01-15T13:05:57.807Z,68.90
2023-01-15T13:11:01.669Z,68.90
2023-01-15T13:16:18.035Z,68.90
2023-01-15T13:21:26.000Z,68.90
2023-01-15T13:27:23.294Z,69.00
2023-01-15T13:32:30.459Z,68.90
2023-01-15T13:37:43.432Z,68.90
2023-01-15T13:42:49.948Z,69.00
2023-01-15T13:47:57.847Z,69.00
2023-01-15T13:53:08.009Z,69.00
2023-01-15T13:58:29.329Z,69.00
2023-01-15T14:03:36.293Z,69.00
2023-01-15T14:08:44.838Z,69.00
2023-01-15T14:14:25.990Z,68.90
2023-01-15T14:20:00.129Z,69.00
2023-01-15T14:25:41.401Z,68.90
2023-01-15T14:31:22.846Z,69.00
2023-01-15T14:36:39.014Z,69.10
2023-01-15T14:41:59.066Z,69.10
2023-01-15T14:47:06.619Z,69.10
2023-01-15T14:52:10.848Z,69.20
2023-01-15T14:57:17.556Z,69.20
2023-01-15T15:02:31.553Z,69.30
2023-01-15T15:07:42.196Z,69.10
2023-01-15T15:12:56.467Z,69.20
2023-01-15T15:18:07.738Z,69.20
2023-01-15T15:23:20.055Z,69.30
2023-01-15T15:28:25.208Z,69.30
2023-01-15T15:33:38.604Z,71.00
2023-01-15T15:38:46.072Z,71.50
2023-01-15T15:44:14.672Z,70.10
2023-01-15T15:49:20.074Z,66.90
2023-01-15T15:54:27.873Z,64.80
2023-01-15T15:59:36.582Z,62.50
2023-01-15T16:04:46.767Z,62.20
2023-01-15T16:09:53.945Z,61.80
2023-01-15T16:15:00.214Z,61.70
2023-01-15T16:20:03.886Z,61.70
2023-01-15T16:25:24.356Z,61.10
2023-01-15T16:30:33.990Z,61.00
2023-01-15T16:35:38.488Z,61.10
2023-01-15T16:40:47.943Z,61.70
2023-01-15T16:46:06.028Z,62.30
2023-01-15T16:51:35.751Z,62.80
2023-01-15T16:56:55.335Z,64.20
2023-01-15T17:02:12.224Z,64.90
2023-01-15T17:07:23.915Z,65.10
2023-01-15T17:12:34.391Z,65.30
2023-01-15T17:17:39.527Z,65.50
2023-01-15T17:22:47.007Z,65.70
2023-01-15T17:27:50.711Z,65.90
2023-01-15T17:32:55.721Z,66.10
2023-01-15T17:37:59.411Z,68.70
2023-01-15T17:43:03.859Z,69.60
2023-01-15T17:48:09.915Z,69.60
2023-01-15T17:53:13.555Z,69.40
2023-01-15T17:58:35.962Z,69.30
2023-01-15T18:04:09.545Z,69.30
2023-01-15T18:09:14.075Z,69.20
2023-01-15T18:14:17.792Z,69.20
2023-01-15T18:19:22.781Z,69.40
2023-01-15T18:24:26.414Z,68.60
2023-01-15T18:29:30.188Z,67.40
2023-01-15T18:34:35.279Z,66.50
2023-01-15T18:39:38.838Z,66.00
2023-01-15T18:44:59.829Z,65.40
2023-01-15T18:50:04.888Z,65.60
2023-01-15T18:55:09.691Z,65.00
2023-01-15T19:00:14.772Z,65.00
2023-01-15T19:05:20.923Z,65.10
2023-01-15T19:10:24.745Z,65.20
2023-01-15T19:15:48.269Z,65.30
2023-01-15T19:20:53.422Z,65.60
2023-01-15T19:25:56.982Z,65.70
2023-01-15T19:31:18.175Z,65.90
2023-01-15T19:36:23.497Z,66.10
2023-01-15T19:41:44.958Z,66.30
2023-01-15T19:47:06.350Z,66.70
2023-01-15T19:52:29.312Z,67.00
2023-01-15T19:57:38.363Z,67.30
2023-01-15T20:02:42.442Z,67.30
2023-01-15T20:07:50.327Z,67.40
2023-01-15T20:13:11.572Z,67.50
2023-01-15T20:18:17.012Z,67.60
2023-01-15T20:23:22.405Z,67.70
2023-01-15T20:28:26.093Z,67.70
2023-01-15T20:33:29.830Z,67.90
2023-01-15T20:38:34.845Z,67.00
2023-01-15T20:43:56.211Z,65.50
2023-01-15T20:49:17.231Z,64.40
2023-01-15T20:54:26.495Z,63.90
2023-01-15T20:59:30.382Z,63.70
2023-01-15T21:04:34.539Z,63.90
2023-01-15T21:09:39.730Z,63.90
2023-01-15T21:14:46.231Z,64.20
2023-01-15T21:19:49.834Z,64.50
2023-01-15T21:24:54.774Z,64.50
2023-01-15T21:29:58.326Z,64.80
2023-01-15T21:35:01.981Z,65.00
2023-01-15T21:40:09.956Z,65.20
2023-01-15T21:45:13.599Z,65.40
2023-01-15T21:50:20.442Z,65.70
2023-01-15T21:55:25.748Z,65.60
2023-01-15T22:00:29.471Z,65.60
2023-01-15T22:05:34.560Z,65.40
2023-01-15T22:10:39.951Z,65.60
2023-01-15T22:15:43.854Z,65.50
2023-01-15T22:20:58.290Z,65.50
2023-01-15T22:26:03.689Z,65.80
2023-01-15T22:31:08.225Z,66.00
2023-01-15T22:36:13.974Z,66.10
2023-01-15T22:41:40.531Z,66.30
2023-01-15T22:46:45.003Z,66.60
2023-01-15T22:51:49.063Z,66.70
2023-01-15T22:56:54.139Z,66.90
2023-01-15T23:01:57.880Z,66.80
2023-01-15T23:07:02.012Z,66.70
2023-01-15T23:12:07.607Z,66.80
2023-01-15T23:17:11.187Z,69.10
2023-01-15T23:22:14.888Z,70.50
2023-01-15T23:27:20.114Z,71.70
2023-01-15T23:32:23.878Z,71.80
2023-01-15T23:37:27.769Z,71.80
2023-01-15T23:42:50.447Z,72.00
2023-01-15T23:47:56.362Z,71.90
2023-01-15T23:53:01.579Z,72.00
2023-01-15T23:58:06.503Z,72.00
